Las Petacas, Argentina
Current Conditions -  °F | °C
As of 3:26 PM on Friday 31 Oct 2014 (Local Time) from SAAR Reporting Station
Thunderstorm Thunderstorm  
Wind Chill: 72°   Ceiling: 1500
Heat Index: 72°   Visibility: 4mi
Dew Point: 57°   Wind: 5mph
Humidity: 60%   Direction: 50°NE
Pressure: 29.94"   Gusts: NA
Location:  31.82°S, 62.11°W
Report Text: SAAR 311826Z 05004KT 7000 TSRA BKN015 FEW035CB OVC050 22/14 Q1014
Loading
Personal Weather Stations






























Interactive Weather Map
Tropical Storm Tracking
New forecast layout! Learn more

10-Day Weather Forecast

Advertisements
Track Severe Weather on mobile